Time;durP1;ratioP1;P1;durP2;ratioP2;P2;SDS_P1;SDS_P2;PMS_P1;PMS_P2;Temp;Humidity;BMP_temperature;BMP_pressure;BME280_temperature;BME280_humidity;BME280_pressure;Samples;Min_cycle;Max_cycle;Signal;HPM_P1;HPM_P2
2022/06/06 00:02:00;;;;;;;5.05;3.28;;;;;;;21.94;39.55;99479.56;4451031;32;33917;-63
2022/06/06 00:04:28;;;;;;;4.93;3.20;;;;;;;22.15;39.40;99495.03;4450473;32;33209;-63
2022/06/06 00:06:58;;;;;;;5.55;3.50;;;;;;;22.31;39.23;99487.47;4447813;32;34734;-64
2022/06/06 00:09:27;;;;;;;5.72;3.00;;;;;;;22.54;38.49;99492.69;4450315;32;35934;-63
2022/06/06 00:11:56;;;;;;;5.32;3.33;;;;;;;22.57;38.24;99491.47;4445921;32;34891;-63
2022/06/06 00:14:24;;;;;;;4.60;3.10;;;;;;;22.76;37.98;99489.87;4449164;32;33423;-63
2022/06/06 00:16:51;;;;;;;5.05;3.20;;;;;;;22.80;38.76;99485.75;4455647;32;33305;-63
2022/06/06 00:19:19;;;;;;;4.95;3.10;;;;;;;22.80;37.64;99488.47;4455734;32;33633;-63
2022/06/06 00:21:48;;;;;;;5.20;3.00;;;;;;;22.54;38.26;99484.50;4451091;32;34977;-63
2022/06/06 00:24:16;;;;;;;5.25;3.17;;;;;;;22.56;38.39;99482.41;4451645;32;31771;-62
2022/06/06 00:26:44;;;;;;;4.72;3.00;;;;;;;22.39;38.39;99491.09;4451262;32;33846;-63
2022/06/06 00:29:16;;;;;;;7.25;2.90;;;;;;;22.31;38.40;99483.88;4446020;32;33791;-65
2022/06/06 00:34:48;;;;;;;4.55;3.00;;;;;;;22.34;38.59;99497.13;4450127;32;33490;-64
2022/06/06 00:37:23;;;;;;;4.20;2.67;;;;;;;22.00;39.38;99503.31;4460295;32;34981;-65
2022/06/06 00:39:51;;;;;;;5.15;3.20;;;;;;;22.05;39.59;99509.84;4458781;32;33687;-65
2022/06/06 00:42:29;;;;;;;6.25;3.00;;;;;;;22.38;38.89;99516.69;4459161;32;35112;-65
2022/06/06 00:45:36;;;;;;;5.72;3.42;;;;;;;22.35;38.98;99520.66;4438859;32;34139;-65
2022/06/06 00:48:38;;;;;;;4.75;3.28;;;;;;;22.32;39.28;99523.75;4415213;32;34210;-64
2022/06/06 00:51:09;;;;;;;5.22;2.80;;;;;;;22.24;40.57;99532.91;4447146;32;33818;-69
2022/06/06 00:53:43;;;;;;;5.15;2.92;;;;;;;22.57;39.00;99535.09;4458034;32;33312;-69
2022/06/06 00:56:24;;;;;;;4.22;2.80;;;;;;;22.77;38.44;99536.09;4448099;32;34603;-69
2022/06/06 00:58:54;;;;;;;4.85;3.22;;;;;;;22.79;38.35;99546.78;4454577;32;34866;-66
2022/06/06 01:01:22;;;;;;;5.30;2.75;;;;;;;22.88;38.22;99561.13;4447435;32;36639;-66
2022/06/06 01:03:50;;;;;;;5.00;3.30;;;;;;;23.32;37.31;99573.63;4445603;32;33818;-66
2022/06/06 01:06:19;;;;;;;4.43;2.85;;;;;;;23.16;37.35;99570.19;4446493;32;32856;-67
2022/06/06 01:08:47;;;;;;;6.10;3.97;;;;;;;23.04;37.69;99570.94;4448499;32;33695;-63
2022/06/06 01:11:15;;;;;;;5.12;3.47;;;;;;;23.09;37.63;99566.56;4434924;32;32264;-66
2022/06/06 01:13:45;;;;;;;6.40;3.00;;;;;;;23.10;37.64;99559.22;4467626;32;33262;-63
2022/06/06 01:16:19;;;;;;;5.65;3.25;;;;;;;22.44;39.30;99556.78;4445930;32;33225;-63
2022/06/06 01:19:05;;;;;;;6.07;3.30;;;;;;;22.42;39.36;99564.31;4449544;32;33891;-64
2022/06/06 01:22:10;;;;;;;5.68;2.92;;;;;;;21.86;40.81;99575.84;4443421;32;33788;-66
2022/06/06 01:25:06;;;;;;;5.85;3.80;;;;;;;22.69;38.99;99581.75;4448155;32;32974;-68
2022/06/06 01:27:53;;;;;;;5.80;3.50;;;;;;;21.77;40.98;99582.47;4445394;32;33073;-68
2022/06/06 01:30:24;;;;;;;5.03;3.40;;;;;;;22.05;40.55;99586.16;4447660;32;34201;-66
2022/06/06 01:33:01;;;;;;;5.12;3.20;;;;;;;22.27;40.26;99576.13;4438856;32;33679;-69
2022/06/06 01:35:35;;;;;;;5.37;3.10;;;;;;;22.09;40.59;99579.28;4449339;32;34779;-66
2022/06/06 01:38:04;;;;;;;5.70;3.80;;;;;;;22.65;39.47;99586.75;4450833;32;34428;-64
2022/06/06 01:40:49;;;;;;;4.90;3.30;;;;;;;22.91;39.57;99597.03;4459972;32;32708;-63
2022/06/06 01:43:21;;;;;;;4.95;3.15;;;;;;;22.59;39.67;99603.06;4445463;32;35091;-66
2022/06/06 01:45:52;;;;;;;8.05;3.70;;;;;;;22.78;39.21;99610.59;4447905;32;32576;-63
2022/06/06 01:48:26;;;;;;;5.00;3.20;;;;;;;22.56;40.16;99631.56;4454144;32;32023;-63
2022/06/06 01:50:54;;;;;;;5.77;3.50;;;;;;;23.08;39.17;99644.06;4442490;32;33594;-63
2022/06/06 01:53:24;;;;;;;4.93;3.45;;;;;;;23.29;38.61;99658.69;4443667;32;33811;-65
2022/06/06 01:55:53;;;;;;;4.65;3.05;;;;;;;23.29;38.78;99675.91;4442506;32;32851;-63
2022/06/06 01:58:26;;;;;;;8.38;3.40;;;;;;;23.43;38.21;99695.94;4448736;32;34442;-62
2022/06/06 02:00:54;;;;;;;7.22;3.20;;;;;;;23.45;38.59;99719.28;4440317;32;33747;-65
2022/06/06 02:03:22;;;;;;;4.93;3.37;;;;;;;23.47;38.63;99719.94;4445895;32;33683;-67
2022/06/06 02:05:50;;;;;;;5.85;3.20;;;;;;;23.76;37.98;99720.81;4445845;32;32806;-68
2022/06/06 02:08:18;;;;;;;6.10;3.20;;;;;;;23.82;38.07;99725.47;4439385;32;34301;-66
2022/06/06 02:10:45;;;;;;;5.28;3.40;;;;;;;23.90;37.86;99706.16;4460114;32;32659;-66
2022/06/06 02:13:14;;;;;;;5.80;3.40;;;;;;;24.10;37.65;99705.41;4449286;32;33988;-65
2022/06/06 02:15:42;;;;;;;5.85;3.90;;;;;;;24.14;37.42;99693.00;4450603;32;33826;-64
2022/06/06 02:18:10;;;;;;;6.68;3.03;;;;;;;24.10;38.26;99684.38;4451223;32;32944;-68
2022/06/06 02:20:38;;;;;;;4.90;3.20;;;;;;;24.17;38.97;99676.19;4459448;32;34691;-65
2022/06/06 02:23:06;;;;;;;4.30;2.92;;;;;;;24.34;38.81;99674.81;4448575;32;32689;-68
2022/06/06 02:25:34;;;;;;;5.25;3.08;;;;;;;24.44;38.58;99673.59;4448904;32;34063;-67
2022/06/06 02:28:01;;;;;;;4.50;2.85;;;;;;;24.42;38.17;99670.22;4449059;32;34246;-66
2022/06/06 02:30:31;;;;;;;5.30;2.83;;;;;;;24.49;38.34;99673.81;4450067;32;33721;-66
2022/06/06 02:33:00;;;;;;;4.90;3.28;;;;;;;24.54;37.93;99680.34;4451033;32;37342;-65
2022/06/06 02:35:30;;;;;;;5.90;3.40;;;;;;;24.41;37.77;99677.59;4449550;32;33597;-65
2022/06/06 02:37:58;;;;;;;4.50;2.87;;;;;;;24.32;37.54;99676.06;4456713;32;32737;-67
2022/06/06 02:40:27;;;;;;;7.00;3.40;;;;;;;24.31;37.47;99686.16;4452710;32;33715;-66
2022/06/06 02:42:55;;;;;;;5.00;3.05;;;;;;;24.11;37.95;99687.97;4448078;32;33948;-66
2022/06/06 02:45:23;;;;;;;4.97;3.17;;;;;;;24.09;38.11;99679.13;4448753;32;33467;-66
2022/06/06 02:47:54;;;;;;;5.03;3.53;;;;;;;23.96;39.30;99671.72;4445579;32;32448;-65
2022/06/06 02:50:25;;;;;;;4.90;3.30;;;;;;;23.68;40.07;99680.81;4454254;32;33539;-66
2022/06/06 02:52:53;;;;;;;5.45;3.42;;;;;;;23.76;38.91;99663.44;4462381;32;33412;-66
2022/06/06 02:55:21;;;;;;;6.93;3.20;;;;;;;23.48;40.09;99666.16;4451230;32;34782;-66
2022/06/06 02:57:50;;;;;;;5.28;3.20;;;;;;;23.59;40.02;99664.75;4451191;32;34076;-67
2022/06/06 03:00:24;;;;;;;4.82;3.33;;;;;;;23.81;39.21;99658.19;4447871;32;32348;-65
2022/06/06 03:02:51;;;;;;;4.55;3.00;;;;;;;24.01;38.79;99665.63;4441698;32;33863;-67
2022/06/06 03:05:19;;;;;;;6.57;2.95;;;;;;;24.14;38.13;99677.47;4442262;32;33699;-66
2022/06/06 03:08:06;;;;;;;4.12;2.85;;;;;;;24.20;38.04;99684.00;4449248;32;32299;-68
2022/06/06 03:10:52;;;;;;;5.10;2.78;;;;;;;24.27;37.87;99673.94;4449953;32;35147;-67
2022/06/06 03:13:47;;;;;;;6.90;3.20;;;;;;;24.28;38.85;99670.16;4457875;32;34820;-66
2022/06/06 03:23:01;;;;;;;5.30;3.25;;;;;;;24.16;38.57;99660.84;4440139;32;33789;-68
2022/06/06 03:26:06;;;;;;;5.12;3.40;;;;;;;24.14;39.10;99663.81;4439788;32;33879;-68
2022/06/06 03:28:44;;;;;;;5.30;3.30;;;;;;;24.19;39.41;99646.78;4449158;32;32421;-69
2022/06/06 03:31:23;;;;;;;4.87;3.33;;;;;;;23.84;40.12;99641.38;4445568;32;33330;-66
2022/06/06 03:33:54;;;;;;;6.35;3.12;;;;;;;24.06;39.30;99644.00;4447639;32;33077;-66
2022/06/06 03:36:44;;;;;;;5.25;3.50;;;;;;;24.06;39.87;99639.38;4454557;32;33263;-65
2022/06/06 03:39:35;;;;;;;4.80;3.08;;;;;;;24.15;39.65;99629.94;4463487;32;33301;-66
2022/06/06 03:42:23;;;;;;;4.95;3.33;;;;;;;23.87;40.52;99624.56;4446133;32;33108;-66
2022/06/06 03:44:53;;;;;;;5.30;3.47;;;;;;;23.95;40.30;99620.84;4448917;32;33828;-66
2022/06/06 03:47:27;;;;;;;5.20;3.03;;;;;;;24.09;40.21;99610.78;4450315;32;35127;-66
2022/06/06 03:50:17;;;;;;;4.82;3.12;;;;;;;23.94;40.58;99613.66;4456316;32;34330;-66
2022/06/06 03:52:51;;;;;;;5.35;3.20;;;;;;;23.71;40.49;99606.63;4442635;32;33009;-66
2022/06/06 03:55:36;;;;;;;5.20;3.50;;;;;;;23.56;40.95;99594.97;4446597;32;33678;-66
2022/06/06 03:58:04;;;;;;;5.37;3.58;;;;;;;23.68;40.64;99582.44;4457658;32;34882;-66
2022/06/06 04:00:33;;;;;;;5.62;3.20;;;;;;;23.82;40.56;99586.09;4458397;32;33819;-66
2022/06/06 04:03:04;;;;;;;5.07;3.35;;;;;;;23.91;40.63;99595.78;4445950;32;33367;-66
2022/06/06 04:05:36;;;;;;;5.00;3.30;;;;;;;24.12;40.41;99602.16;4446889;32;33061;-65
2022/06/06 04:08:04;;;;;;;5.03;3.17;;;;;;;23.99;40.64;99602.97;4450045;32;35033;-66
2022/06/06 04:10:44;;;;;;;5.62;3.50;;;;;;;23.96;40.34;99606.13;4440241;32;32976;-66
2022/06/06 04:13:28;;;;;;;6.35;3.35;;;;;;;23.66;41.03;99611.84;4449889;32;33345;-67
2022/06/06 04:16:21;;;;;;;5.05;3.47;;;;;;;23.40;41.53;99620.75;4444905;32;33894;-66
2022/06/06 04:18:58;;;;;;;5.12;3.40;;;;;;;23.44;41.33;99622.03;4452618;32;33977;-65
2022/06/06 04:21:38;;;;;;;4.72;3.47;;;;;;;23.24;41.55;99627.37;4450513;32;33469;-66
2022/06/06 04:24:17;;;;;;;5.82;3.75;;;;;;;23.39;41.28;99626.41;4454771;32;33385;-66
2022/06/06 04:26:58;;;;;;;5.18;3.67;;;;;;;23.50;41.53;99625.84;4447134;32;34929;-66
2022/06/06 04:29:40;;;;;;;5.20;3.08;;;;;;;23.63;40.80;99622.34;4442401;32;33665;-67
2022/06/06 04:32:15;;;;;;;6.28;3.45;;;;;;;23.56;40.72;99630.47;4446047;32;35018;-69
2022/06/06 04:35:07;;;;;;;4.60;3.22;;;;;;;23.43;41.20;99631.25;4448984;32;34226;-68
2022/06/06 04:37:45;;;;;;;6.22;3.40;;;;;;;23.39;41.24;99629.97;4448971;32;32662;-69
2022/06/06 04:40:37;;;;;;;6.03;3.53;;;;;;;23.46;41.33;99636.31;4449757;32;33412;-68
2022/06/06 04:43:25;;;;;;;5.20;3.25;;;;;;;23.63;41.03;99638.72;4445180;32;34659;-67
2022/06/06 04:45:58;;;;;;;5.12;3.37;;;;;;;23.61;41.28;99640.81;4446179;32;33062;-68
2022/06/06 04:48:26;;;;;;;5.65;3.40;;;;;;;23.75;41.01;99645.31;4443421;32;33785;-67
2022/06/06 04:50:57;;;;;;;5.35;3.70;;;;;;;23.76;40.91;99644.28;4441059;32;34926;-67
2022/06/06 04:53:25;;;;;;;5.75;3.30;;;;;;;23.85;40.67;99648.53;4447305;32;33831;-68
2022/06/06 04:55:53;;;;;;;6.37;3.75;;;;;;;23.87;40.62;99646.44;4455555;32;33941;-67
2022/06/06 04:58:21;;;;;;;5.22;3.45;;;;;;;23.93;40.74;99639.31;4445958;32;33464;-65
2022/06/06 05:00:49;;;;;;;5.80;3.45;;;;;;;24.05;40.92;99645.06;4445785;32;32751;-68
2022/06/06 05:03:16;;;;;;;4.53;3.42;;;;;;;23.97;41.70;99650.69;4448768;32;33769;-65
2022/06/06 05:06:18;;;;;;;5.68;3.90;;;;;;;23.92;42.28;99654.03;4444797;32;33605;-65
2022/06/06 05:09:05;;;;;;;5.85;3.65;;;;;;;24.04;42.61;99655.12;4446857;32;33436;-65
2022/06/06 05:11:55;;;;;;;5.55;3.80;;;;;;;24.20;43.17;99658.56;4442260;32;32746;-66
2022/06/06 05:14:38;;;;;;;7.25;4.05;;;;;;;23.90;45.59;99659.69;4447444;32;33935;-66
2022/06/06 05:17:24;;;;;;;6.40;4.40;;;;;;;23.74;46.12;99653.75;4441809;32;33190;-65
2022/06/06 05:20:16;;;;;;;5.90;3.70;;;;;;;24.08;45.97;99663.78;4442600;32;33635;-67
2022/06/06 05:23:10;;;;;;;5.40;3.95;;;;;;;24.11;46.32;99668.84;4447267;32;33892;-66
2022/06/06 05:25:49;;;;;;;5.85;4.20;;;;;;;23.92;46.45;99671.28;4438062;32;33805;-68
2022/06/06 05:28:37;;;;;;;5.45;3.97;;;;;;;23.91;46.61;99674.19;4459946;32;33145;-66
2022/06/06 05:31:37;;;;;;;6.75;4.50;;;;;;;24.22;46.42;99675.59;4445139;32;33592;-65
2022/06/06 05:34:09;;;;;;;6.50;3.97;;;;;;;24.13;47.30;99674.94;4445441;32;33709;-66
2022/06/06 05:37:15;;;;;;;5.62;3.87;;;;;;;24.47;46.72;99676.78;4457331;32;34716;-66
2022/06/06 05:39:49;;;;;;;6.95;4.40;;;;;;;24.29;48.02;99671.84;4390019;32;32275;-65
2022/06/06 05:42:43;;;;;;;6.87;4.60;;;;;;;24.75;46.89;99679.34;4386924;32;33406;-66
2022/06/06 05:45:21;;;;;;;7.07;4.45;;;;;;;24.07;48.92;99668.38;4421106;32;32767;-67
2022/06/06 05:48:10;;;;;;;7.45;4.45;;;;;;;24.32;48.44;99671.41;4454131;32;33983;-67
2022/06/06 05:50:50;;;;;;;5.75;4.12;;;;;;;24.51;48.56;99677.19;4453157;32;32217;-66
2022/06/06 05:53:30;;;;;;;6.22;4.37;;;;;;;24.59;48.23;99671.50;4447890;32;34998;-65
2022/06/06 05:56:19;;;;;;;5.75;4.30;;;;;;;24.24;50.03;99678.97;4452633;32;33890;-66
2022/06/06 05:59:02;;;;;;;6.57;4.60;;;;;;;24.57;49.85;99681.84;4459928;32;34584;-66
2022/06/06 06:01:45;;;;;;;6.78;4.55;;;;;;;24.63;48.94;99683.75;4449629;32;34512;-68
2022/06/06 06:04:19;;;;;;;7.10;4.53;;;;;;;24.78;48.54;99678.06;4452062;32;35170;-67
2022/06/06 06:07:05;;;;;;;6.05;4.37;;;;;;;24.66;48.87;99688.81;4449283;32;33870;-69
2022/06/06 06:09:55;;;;;;;6.78;4.70;;;;;;;24.60;48.99;99678.69;4447964;32;32675;-69
2022/06/06 06:12:25;;;;;;;8.20;5.00;;;;;;;24.39;49.69;99676.91;4450890;32;36879;-68
2022/06/06 06:15:12;;;;;;;7.47;5.15;;;;;;;24.10;51.27;99680.81;4455148;32;33577;-66
2022/06/06 06:17:40;;;;;;;5.78;4.22;;;;;;;24.26;51.01;99676.88;4450307;32;33838;-67
2022/06/06 06:20:13;;;;;;;6.20;4.32;;;;;;;23.57;52.25;99688.72;4452560;32;32501;-65
2022/06/06 06:22:44;;;;;;;6.12;4.75;;;;;;;24.02;50.57;99683.72;4447210;32;33174;-65
2022/06/06 06:25:15;;;;;;;7.82;4.45;;;;;;;24.36;47.65;99682.78;4452620;32;33569;-65
2022/06/06 06:27:43;;;;;;;5.68;4.18;;;;;;;24.83;46.67;99695.56;4463236;32;33287;-65
2022/06/06 06:30:12;;;;;;;6.97;4.50;;;;;;;25.14;46.11;99696.91;4459278;32;32768;-65
2022/06/06 06:33:04;;;;;;;6.05;4.03;;;;;;;24.70;46.92;99700.19;4460308;32;33535;-65
2022/06/06 06:35:54;;;;;;;6.80;4.00;;;;;;;24.60;47.82;99706.91;4467241;32;32660;-64
2022/06/06 06:38:53;;;;;;;6.00;4.50;;;;;;;24.74;48.37;99705.03;4454799;32;34284;-64
2022/06/06 06:41:23;;;;;;;6.40;4.25;;;;;;;25.00;48.42;99701.47;4453390;32;34250;-65
2022/06/06 06:44:01;;;;;;;8.50;4.78;;;;;;;24.75;49.01;99697.66;4463785;32;33381;-65
2022/06/06 06:46:48;;;;;;;6.57;4.65;;;;;;;25.03;48.22;99695.56;4443935;32;34037;-65
2022/06/06 06:49:38;;;;;;;14.27;5.00;;;;;;;24.95;49.11;99695.78;4452596;32;33501;-65
2022/06/06 06:52:33;;;;;;;7.25;4.00;;;;;;;24.93;48.68;99691.56;4449547;32;33500;-65
2022/06/06 06:55:18;;;;;;;6.50;4.65;;;;;;;24.63;48.85;99694.69;4453999;32;34830;-65
2022/06/06 06:57:59;;;;;;;6.40;4.05;;;;;;;24.12;49.34;99693.22;4440493;32;33928;-65
2022/06/06 07:00:32;;;;;;;6.45;3.97;;;;;;;23.91;50.05;99690.59;4455364;32;32713;-65
2022/06/06 07:09:39;;;;;;;7.12;4.12;;;;;;;24.13;48.34;99694.06;4395973;32;33897;-64
2022/06/06 07:12:32;;;;;;;7.62;4.10;;;;;;;24.63;47.43;99692.78;4392285;32;33963;-65
2022/06/06 07:15:08;;;;;;;6.28;4.03;;;;;;;24.46;45.96;99701.56;4433882;32;33694;-64
2022/06/06 07:17:44;;;;;;;5.55;4.05;;;;;;;24.33;46.17;99700.47;4447866;32;33442;-64
2022/06/06 07:20:15;;;;;;;6.78;4.05;;;;;;;24.76;45.55;99699.34;4451610;32;32520;-66
2022/06/06 07:23:09;;;;;;;7.30;4.10;;;;;;;24.62;44.87;99693.84;4452131;32;33909;-63
2022/06/06 07:25:56;;;;;;;7.30;4.03;;;;;;;24.38;46.58;99695.22;4451435;32;32799;-64
2022/06/06 07:28:24;;;;;;;6.10;4.32;;;;;;;24.76;46.03;99700.19;4451117;32;34636;-66
2022/06/06 07:31:04;;;;;;;6.90;4.12;;;;;;;24.98;46.14;99702.75;4439788;32;34809;-64
2022/06/06 07:33:34;;;;;;;6.00;3.40;;;;;;;24.97;45.38;99703.78;4449512;32;32762;-65
2022/06/06 07:36:18;;;;;;;6.35;3.50;;;;;;;24.74;42.61;99706.91;4451153;32;33027;-64
2022/06/06 07:39:13;;;;;;;6.57;3.90;;;;;;;24.95;41.53;99703.16;4451414;32;32137;-64
2022/06/06 07:41:55;;;;;;;6.75;3.45;;;;;;;24.85;41.45;99709.91;4459182;32;34003;-63
2022/06/06 07:44:47;;;;;;;5.95;3.60;;;;;;;24.71;41.50;99707.34;4460819;32;35101;-65
2022/06/06 07:47:40;;;;;;;5.10;3.35;;;;;;;25.66;39.44;99706.13;4446799;32;33694;-64
2022/06/06 07:50:19;;;;;;;6.05;3.90;;;;;;;25.39;38.49;99709.94;4452444;32;34526;-64
2022/06/06 07:53:02;;;;;;;5.43;3.00;;;;;;;25.06;37.67;99710.75;4454267;32;33817;-63
2022/06/06 07:55:32;;;;;;;5.10;3.33;;;;;;;24.80;37.97;99703.34;4451790;32;32851;-64
2022/06/06 07:58:15;;;;;;;5.78;3.40;;;;;;;25.30;37.90;99712.06;4448767;32;32808;-64
2022/06/06 08:00:48;;;;;;;7.00;3.25;;;;;;;24.72;37.27;99706.28;4452995;32;33087;-64
2022/06/06 08:03:26;;;;;;;4.37;2.90;;;;;;;25.14;35.87;99709.75;4448128;32;33412;-64
2022/06/06 08:06:11;;;;;;;4.90;2.78;;;;;;;25.51;36.23;99719.19;4454767;32;33024;-66
2022/06/06 08:08:40;;;;;;;5.32;3.45;;;;;;;25.36;36.82;99721.31;4452943;32;33933;-65
2022/06/06 08:11:29;;;;;;;5.70;3.20;;;;;;;26.05;36.65;99725.44;4454330;32;33341;-65
2022/06/06 08:14:03;;;;;;;6.10;3.70;;;;;;;25.65;37.21;99722.75;4453445;32;33884;-66
2022/06/06 08:16:39;;;;;;;6.28;4.15;;;;;;;24.97;39.81;99726.53;4450228;32;33617;-66
2022/06/06 08:19:07;;;;;;;5.97;3.55;;;;;;;25.07;40.10;99731.59;4429892;32;33494;-64
2022/06/06 08:21:39;;;;;;;5.47;3.70;;;;;;;25.75;39.08;99724.03;4451361;32;33222;-66
2022/06/06 08:24:12;;;;;;;5.50;4.07;;;;;;;25.72;39.41;99723.59;4459135;32;33706;-64
2022/06/06 08:27:01;;;;;;;5.82;4.18;;;;;;;25.30;40.19;99728.50;4451953;32;33873;-66
2022/06/06 08:29:30;;;;;;;5.62;3.97;;;;;;;24.89;41.09;99725.91;4459358;32;34950;-66
2022/06/06 08:31:57;;;;;;;7.00;4.15;;;;;;;25.00;41.64;99731.59;4448483;32;33346;-67
2022/06/06 08:34:25;;;;;;;6.97;4.07;;;;;;;25.11;40.96;99724.66;4440546;32;33250;-66
2022/06/06 08:37:13;;;;;;;6.90;4.20;;;;;;;25.68;40.56;99725.94;4444995;32;31648;-65
2022/06/06 08:39:40;;;;;;;9.18;4.68;;;;;;;25.95;39.94;99725.91;4435657;32;33802;-66
2022/06/06 08:42:26;;;;;;;6.60;4.03;;;;;;;25.37;41.26;99726.59;4449717;32;33452;-66
2022/06/06 08:45:13;;;;;;;6.12;4.35;;;;;;;25.71;40.65;99724.66;4450103;32;33396;-66
2022/06/06 08:47:56;;;;;;;5.75;4.47;;;;;;;25.02;41.88;99726.75;4448014;32;33710;-64
2022/06/06 08:50:44;;;;;;;5.95;4.50;;;;;;;25.25;40.29;99725.53;4438190;32;33799;-64
2022/06/06 08:53:31;;;;;;;8.77;4.85;;;;;;;25.69;40.41;99724.03;4443686;32;33191;-65
2022/06/06 08:56:20;;;;;;;8.63;4.87;;;;;;;25.57;41.08;99723.84;4437167;32;33811;-64
2022/06/06 08:59:07;;;;;;;10.32;6.22;;;;;;;25.60;41.32;99720.66;4447746;32;34049;-65
2022/06/06 09:02:00;;;;;;;6.95;5.18;;;;;;;24.62;44.18;99714.88;4452304;32;33785;-64
2022/06/06 09:04:54;;;;;;;8.02;5.32;;;;;;;25.94;41.51;99718.72;4449799;32;33071;-65
2022/06/06 09:07:59;;;;;;;7.18;4.82;;;;;;;25.74;42.71;99722.31;4450520;32;33623;-65
2022/06/06 09:10:52;;;;;;;7.07;5.43;;;;;;;25.97;42.81;99724.63;4450632;32;33880;-64
2022/06/06 09:13:50;;;;;;;6.93;5.25;;;;;;;25.38;43.95;99716.47;4429635;32;32487;-65
2022/06/06 09:16:46;;;;;;;6.35;4.97;;;;;;;26.04;42.47;99718.28;4449592;32;32015;-65
2022/06/06 09:19:35;;;;;;;7.87;5.30;;;;;;;25.64;43.19;99705.47;4446318;32;33686;-66
2022/06/06 09:22:27;;;;;;;6.62;4.60;;;;;;;26.20;41.77;99710.41;4451576;32;34190;-66
2022/06/06 09:24:59;;;;;;;6.57;4.28;;;;;;;26.47;41.18;99708.38;4448037;32;32790;-63
2022/06/06 09:28:04;;;;;;;6.20;4.90;;;;;;;25.82;41.93;99706.75;4449277;32;32995;-63
2022/06/06 09:30:50;;;;;;;8.05;4.70;;;;;;;25.64;41.69;99700.00;4449101;32;33923;-63
2022/06/06 09:33:21;;;;;;;6.45;4.47;;;;;;;26.09;40.87;99694.63;4450835;32;32816;-68
2022/06/06 09:36:10;;;;;;;7.40;4.80;;;;;;;26.71;38.82;99690.34;4446495;32;33728;-65
2022/06/06 09:38:54;;;;;;;6.90;5.15;;;;;;;26.94;40.25;99681.50;4448522;32;33675;-63
2022/06/06 09:41:39;;;;;;;7.18;5.18;;;;;;;26.88;40.13;99690.63;4430131;32;33883;-63
2022/06/06 09:44:29;;;;;;;8.52;4.85;;;;;;;26.86;40.28;99678.19;4447928;32;35109;-64
2022/06/06 09:47:19;;;;;;;6.82;4.68;;;;;;;27.25;39.06;99688.03;4448917;32;33723;-63
2022/06/06 09:50:23;;;;;;;6.43;4.40;;;;;;;27.76;37.98;99677.81;4451634;32;33345;-64
2022/06/06 09:52:54;;;;;;;5.40;3.83;;;;;;;28.10;35.51;99668.97;4437326;32;33881;-66
2022/06/06 10:01:50;;;;;;;8.02;4.22;;;;;;;27.50;34.56;99668.78;4447263;32;33055;-64
2022/06/06 10:04:49;;;;;;;5.30;3.80;;;;;;;27.79;34.97;99660.88;4441953;32;32330;-65
2022/06/06 10:07:35;;;;;;;7.90;3.75;;;;;;;28.33;34.10;99662.75;4446049;32;33979;-66
2022/06/06 10:10:40;;;;;;;6.47;3.67;;;;;;;28.89;34.03;99659.84;4446885;32;34707;-64
2022/06/06 10:13:33;;;;;;;6.75;3.62;;;;;;;28.17;33.06;99662.56;4445272;32;33152;-66
2022/06/06 10:16:30;;;;;;;6.18;2.90;;;;;;;28.91;31.67;99654.94;4451123;32;35102;-68
2022/06/06 10:18:58;;;;;;;4.53;2.78;;;;;;;29.17;29.49;99653.69;4446280;32;35725;-67
2022/06/06 10:22:14;;;;;;;6.25;3.10;;;;;;;28.90;28.24;99658.78;4445964;32;33643;-65
2022/06/06 10:25:06;;;;;;;6.03;3.03;;;;;;;28.96;29.64;99664.19;4436669;32;33383;-66
2022/06/06 10:27:52;;;;;;;4.22;2.45;;;;;;;29.32;27.89;99659.56;4452778;32;33831;-67
2022/06/06 10:30:49;;;;;;;4.70;2.80;;;;;;;28.89;26.68;99652.44;4449635;32;34114;-65
2022/06/06 10:33:20;;;;;;;5.18;2.92;;;;;;;29.09;26.88;99654.06;4444545;32;34399;-67
2022/06/06 10:35:54;;;;;;;6.15;3.08;;;;;;;29.13;28.20;99658.84;4451704;32;33494;-65
2022/06/06 10:38:56;;;;;;;4.90;3.15;;;;;;;29.06;27.83;99658.13;4443263;32;33841;-66
2022/06/06 10:41:52;;;;;;;5.10;2.80;;;;;;;29.09;27.32;99659.56;4448328;32;33882;-65
2022/06/06 10:45:17;;;;;;;7.80;3.90;;;;;;;29.72;27.88;99653.31;4445030;32;32512;-70
2022/06/06 10:47:53;;;;;;;4.82;3.10;;;;;;;30.10;27.54;99641.72;4444794;32;32137;-67
2022/06/06 10:50:21;;;;;;;5.97;3.30;;;;;;;28.95;29.03;99640.44;4448662;32;33795;-67
2022/06/06 10:53:09;;;;;;;5.45;3.08;;;;;;;29.91;27.54;99632.78;4448466;32;32525;-67
2022/06/06 10:55:46;;;;;;;5.15;2.90;;;;;;;30.19;27.70;99636.69;4447476;32;34680;-67
2022/06/06 10:58:39;;;;;;;4.90;3.03;;;;;;;30.23;26.37;99631.50;4446257;32;34729;-68
2022/06/06 11:01:21;;;;;;;5.80;2.90;;;;;;;29.88;27.22;99636.03;4431316;32;33620;-70
2022/06/06 11:04:29;;;;;;;4.62;2.92;;;;;;;29.96;26.79;99628.47;4447993;32;33836;-66
2022/06/06 11:07:16;;;;;;;4.65;3.12;;;;;;;29.97;27.13;99622.69;4448407;32;33711;-66
2022/06/06 11:09:58;;;;;;;4.35;2.67;;;;;;;29.57;28.00;99628.16;4444715;32;33486;-68
2022/06/06 11:12:49;;;;;;;4.22;2.70;;;;;;;30.02;27.02;99622.81;4442325;32;32155;-66
2022/06/06 11:15:16;;;;;;;4.00;2.33;;;;;;;30.38;25.96;99618.00;4443863;32;35087;-66
2022/06/06 11:18:21;;;;;;;4.12;2.58;;;;;;;30.33;25.80;99609.63;4445709;32;33825;-67
2022/06/06 11:21:00;;;;;;;4.62;2.72;;;;;;;29.82;26.05;99609.41;4444870;32;33020;-66
2022/06/06 11:23:57;;;;;;;4.97;2.67;;;;;;;29.93;26.01;99619.59;4449455;32;34941;-69
2022/06/06 11:26:36;;;;;;;4.12;2.60;;;;;;;29.60;26.84;99617.50;4431698;32;32633;-65
2022/06/06 11:29:25;;;;;;;4.60;2.83;;;;;;;29.82;26.09;99620.44;4448479;32;32825;-66
2022/06/06 11:32:24;;;;;;;4.05;2.78;;;;;;;30.27;26.66;99605.91;4446718;32;34614;-65
2022/06/06 11:35:01;;;;;;;4.68;3.28;;;;;;;30.14;26.98;99608.94;4448105;32;34584;-65
2022/06/06 11:37:37;;;;;;;6.43;2.90;;;;;;;30.02;27.46;99608.19;4448883;32;34066;-65
2022/06/06 11:40:31;;;;;;;6.68;2.78;;;;;;;29.66;27.09;99602.75;4446535;32;32897;-66
2022/06/06 11:43:29;;;;;;;4.00;2.58;;;;;;;30.06;27.06;99609.34;4442662;32;31811;-64
2022/06/06 11:46:22;;;;;;;4.50;2.90;;;;;;;29.94;27.12;99612.97;4425951;32;33099;-64
2022/06/06 11:49:27;;;;;;;5.80;3.15;;;;;;;30.62;26.78;99602.97;4427558;32;33732;-65
2022/06/06 11:52:22;;;;;;;5.60;3.08;;;;;;;30.50;26.02;99598.59;4429569;32;32460;-67
2022/06/06 11:55:08;;;;;;;5.00;3.00;;;;;;;29.70;27.32;99600.34;4430895;32;33019;-66
2022/06/06 11:57:42;;;;;;;4.32;2.87;;;;;;;30.32;25.45;99596.91;4433556;32;33909;-65
2022/06/06 12:00:21;;;;;;;6.53;3.17;;;;;;;30.01;25.84;99595.44;4426241;32;34049;-67
2022/06/06 12:02:52;;;;;;;5.65;3.10;;;;;;;30.38;26.36;99591.22;4428291;32;34679;-65
2022/06/06 12:05:30;;;;;;;4.25;2.60;;;;;;;29.86;26.84;99590.47;4430474;32;33592;-66
2022/06/06 12:08:20;;;;;;;5.55;2.92;;;;;;;30.04;26.84;99589.44;4428522;32;33654;-65
2022/06/06 12:11:32;;;;;;;4.97;2.83;;;;;;;29.80;26.39;99583.16;4431941;32;34017;-65
2022/06/06 12:14:34;;;;;;;4.82;2.70;;;;;;;30.25;26.49;99579.66;4430586;32;31858;-64
2022/06/06 12:17:47;;;;;;;5.55;3.10;;;;;;;30.35;26.33;99575.16;4430981;32;33204;-66
2022/06/06 12:20:37;;;;;;;4.40;2.90;;;;;;;30.18;26.25;99564.06;4422994;32;33437;-74
2022/06/06 12:23:19;;;;;;;5.78;3.30;;;;;;;30.14;26.02;99564.78;4433235;32;35186;-69
2022/06/06 12:25:59;;;;;;;5.25;3.30;;;;;;;29.69;26.82;99563.62;4427901;32;34534;-69
2022/06/06 12:28:58;;;;;;;5.07;2.90;;;;;;;30.16;26.50;99565.38;4432832;32;33397;-68
2022/06/06 12:31:32;;;;;;;4.85;3.22;;;;;;;29.33;26.65;99581.28;4434877;32;32026;-70
2022/06/06 12:34:14;;;;;;;4.67;2.93;;;;;;;29.44;27.80;99572.19;4430543;32;33722;-69
2022/06/06 12:37:08;;;;;;;4.12;2.85;;;;;;;29.59;26.96;99560.63;4430691;32;33966;-68
2022/06/06 12:39:47;;;;;;;4.95;2.90;;;;;;;30.03;25.87;99558.25;4425829;32;33337;-71
2022/06/06 12:42:30;;;;;;;5.40;3.40;;;;;;;29.88;27.61;99555.19;4426183;32;34843;-71
2022/06/06 12:45:16;;;;;;;4.57;2.95;;;;;;;29.74;27.53;99554.62;4440647;32;32547;-72
2022/06/06 12:48:39;;;;;;;4.62;3.20;;;;;;;29.15;29.14;99559.37;4450008;32;33962;-67
2022/06/06 12:51:13;;;;;;;5.32;3.20;;;;;;;29.25;28.82;99554.13;4420611;32;33751;-68
2022/06/06 12:53:58;;;;;;;5.05;3.50;;;;;;;28.97;29.24;99554.81;4442842;32;32466;-69
2022/06/06 12:56:48;;;;;;;4.47;3.03;;;;;;;29.68;29.04;99550.94;4442439;32;32508;-68
2022/06/06 12:59:26;;;;;;;4.05;2.87;;;;;;;29.58;28.24;99552.63;4438448;32;33266;-69
2022/06/06 13:02:03;;;;;;;5.95;3.22;;;;;;;29.41;26.85;99553.38;4442138;32;32380;-71